sensor_id;sensor_type;location;lat;lon;timestamp;temperature;humidity
11025;DHT22;22890;51.820;8.682;2023-08-20T00:01:04;21.10;99.90
11025;DHT22;22890;51.820;8.682;2023-08-20T00:03:31;21.10;99.90
11025;DHT22;22890;51.820;8.682;2023-08-20T00:05:58;21.10;99.90
11025;DHT22;22890;51.820;8.682;2023-08-20T00:08:25;21.10;99.90
11025;DHT22;22890;51.820;8.682;2023-08-20T00:10:51;21.00;99.90
11025;DHT22;22890;51.820;8.682;2023-08-20T00:13:18;21.10;99.90
11025;DHT22;22890;51.820;8.682;2023-08-20T00:15:45;21.10;99.90
11025;DHT22;22890;51.820;8.682;2023-08-20T00:18:12;21.10;99.90
11025;DHT22;22890;51.820;8.682;2023-08-20T00:20:39;21.10;99.90
11025;DHT22;22890;51.820;8.682;2023-08-20T00:23:07;21.10;99.90
11025;DHT22;22890;51.820;8.682;2023-08-20T00:25:34;21.00;99.90
11025;DHT22;22890;51.820;8.682;2023-08-20T00:28:01;21.00;99.90
11025;DHT22;22890;51.820;8.682;2023-08-20T00:30:28;21.00;99.90
11025;DHT22;22890;51.820;8.682;2023-08-20T00:32:55;21.00;99.90
11025;DHT22;22890;51.820;8.682;2023-08-20T00:35:22;21.00;99.90
11025;DHT22;22890;51.820;8.682;2023-08-20T00:37:50;21.00;99.90
11025;DHT22;22890;51.820;8.682;2023-08-20T00:40:16;21.00;99.90
11025;DHT22;22890;51.820;8.682;2023-08-20T00:42:43;21.00;99.90
11025;DHT22;22890;51.820;8.682;2023-08-20T00:45:10;21.00;99.90
11025;DHT22;22890;51.820;8.682;2023-08-20T00:47:37;20.90;99.90
11025;DHT22;22890;51.820;8.682;2023-08-20T00:50:06;20.90;99.90
11025;DHT22;22890;51.820;8.682;2023-08-20T00:52:34;20.90;99.90
11025;DHT22;22890;51.820;8.682;2023-08-20T00:55:10;20.80;99.90
11025;DHT22;22890;51.820;8.682;2023-08-20T00:57:38;20.80;99.90
11025;DHT22;22890;51.820;8.682;2023-08-20T01:00:06;20.80;99.90
11025;DHT22;22890;51.820;8.682;2023-08-20T01:02:38;20.80;99.90
11025;DHT22;22890;51.820;8.682;2023-08-20T01:05:06;20.80;99.90
11025;DHT22;22890;51.820;8.682;2023-08-20T01:11:02;20.80;99.90
11025;DHT22;22890;51.820;8.682;2023-08-20T01:13:30;20.80;99.90
11025;DHT22;22890;51.820;8.682;2023-08-20T01:15:57;20.80;99.90
11025;DHT22;22890;51.820;8.682;2023-08-20T01:18:24;20.80;99.90
11025;DHT22;22890;51.820;8.682;2023-08-20T01:21:02;20.80;99.90
11025;DHT22;22890;51.820;8.682;2023-08-20T01:24:44;20.80;99.90
11025;DHT22;22890;51.820;8.682;2023-08-20T01:27:08;20.70;99.90
11025;DHT22;22890;51.820;8.682;2023-08-20T01:29:37;20.70;99.90
11025;DHT22;22890;51.820;8.682;2023-08-20T01:32:06;20.70;99.90
11025;DHT22;22890;51.820;8.682;2023-08-20T01:34:33;20.60;99.90
11025;DHT22;22890;51.820;8.682;2023-08-20T01:37:00;20.60;99.90
11025;DHT22;22890;51.820;8.682;2023-08-20T01:39:27;20.60;99.90
11025;DHT22;22890;51.820;8.682;2023-08-20T01:41:54;20.60;99.90
11025;DHT22;22890;51.820;8.682;2023-08-20T01:44:20;20.60;99.90
11025;DHT22;22890;51.820;8.682;2023-08-20T01:46:47;20.50;99.90
11025;DHT22;22890;51.820;8.682;2023-08-20T01:49:14;20.50;99.90
11025;DHT22;22890;51.820;8.682;2023-08-20T01:51:41;20.50;99.90
11025;DHT22;22890;51.820;8.682;2023-08-20T01:54:08;20.50;99.90
11025;DHT22;22890;51.820;8.682;2023-08-20T01:56:34;20.40;99.90
11025;DHT22;22890;51.820;8.682;2023-08-20T01:59:01;20.40;99.90
11025;DHT22;22890;51.820;8.682;2023-08-20T02:01:28;20.50;99.90
11025;DHT22;22890;51.820;8.682;2023-08-20T02:03:55;20.40;99.90
11025;DHT22;22890;51.820;8.682;2023-08-20T02:06:22;20.40;99.90
11025;DHT22;22890;51.820;8.682;2023-08-20T02:08:48;20.30;99.90
11025;DHT22;22890;51.820;8.682;2023-08-20T02:11:15;20.30;99.90
11025;DHT22;22890;51.820;8.682;2023-08-20T02:13:44;20.30;99.90
11025;DHT22;22890;51.820;8.682;2023-08-20T02:16:11;20.20;99.90
11025;DHT22;22890;51.820;8.682;2023-08-20T02:18:37;20.30;99.90
11025;DHT22;22890;51.820;8.682;2023-08-20T02:21:04;20.20;99.90
11025;DHT22;22890;51.820;8.682;2023-08-20T02:23:31;20.20;99.90
11025;DHT22;22890;51.820;8.682;2023-08-20T02:25:58;20.20;99.90
11025;DHT22;22890;51.820;8.682;2023-08-20T02:28:26;20.20;99.90
11025;DHT22;22890;51.820;8.682;2023-08-20T02:30:54;20.20;99.90
11025;DHT22;22890;51.820;8.682;2023-08-20T02:33:21;20.20;99.90
11025;DHT22;22890;51.820;8.682;2023-08-20T02:35:48;20.20;99.90
11025;DHT22;22890;51.820;8.682;2023-08-20T02:38:15;20.20;99.90
11025;DHT22;22890;51.820;8.682;2023-08-20T02:40:42;20.20;99.90
11025;DHT22;22890;51.820;8.682;2023-08-20T02:43:09;20.10;99.90
11025;DHT22;22890;51.820;8.682;2023-08-20T02:45:40;20.10;99.90
11025;DHT22;22890;51.820;8.682;2023-08-20T02:48:09;20.10;99.90
11025;DHT22;22890;51.820;8.682;2023-08-20T02:50:37;20.10;99.90
11025;DHT22;22890;51.820;8.682;2023-08-20T02:53:04;20.10;99.90
11025;DHT22;22890;51.820;8.682;2023-08-20T02:55:32;20.10;99.90
11025;DHT22;22890;51.820;8.682;2023-08-20T02:57:59;20.10;99.90
11025;DHT22;22890;51.820;8.682;2023-08-20T03:00:26;20.00;99.90
11025;DHT22;22890;51.820;8.682;2023-08-20T03:02:54;20.00;99.90
11025;DHT22;22890;51.820;8.682;2023-08-20T03:05:22;20.00;99.90
11025;DHT22;22890;51.820;8.682;2023-08-20T03:07:49;20.00;99.90
11025;DHT22;22890;51.820;8.682;2023-08-20T03:10:16;20.00;99.90
11025;DHT22;22890;51.820;8.682;2023-08-20T03:12:43;20.00;99.90
11025;DHT22;22890;51.820;8.682;2023-08-20T03:15:09;20.00;99.90
11025;DHT22;22890;51.820;8.682;2023-08-20T03:17:36;19.90;99.90
11025;DHT22;22890;51.820;8.682;2023-08-20T03:20:04;19.90;99.90
11025;DHT22;22890;51.820;8.682;2023-08-20T03:22:33;19.90;99.90
11025;DHT22;22890;51.820;8.682;2023-08-20T03:25:00;19.90;99.90
11025;DHT22;22890;51.820;8.682;2023-08-20T03:27:26;19.90;99.90
11025;DHT22;22890;51.820;8.682;2023-08-20T03:29:53;19.90;99.90
11025;DHT22;22890;51.820;8.682;2023-08-20T03:32:20;19.90;99.90
11025;DHT22;22890;51.820;8.682;2023-08-20T03:34:48;19.90;99.90
11025;DHT22;22890;51.820;8.682;2023-08-20T03:37:17;19.90;99.90
11025;DHT22;22890;51.820;8.682;2023-08-20T03:39:45;19.90;99.90
11025;DHT22;22890;51.820;8.682;2023-08-20T03:42:12;19.80;99.90
11025;DHT22;22890;51.820;8.682;2023-08-20T03:44:38;19.80;99.90
11025;DHT22;22890;51.820;8.682;2023-08-20T03:47:05;19.70;99.90
11025;DHT22;22890;51.820;8.682;2023-08-20T03:49:35;19.70;99.90
11025;DHT22;22890;51.820;8.682;2023-08-20T03:52:02;19.70;99.90
11025;DHT22;22890;51.820;8.682;2023-08-20T03:54:29;19.70;99.90
11025;DHT22;22890;51.820;8.682;2023-08-20T03:56:56;19.70;99.90
11025;DHT22;22890;51.820;8.682;2023-08-20T03:59:23;19.80;99.90
11025;DHT22;22890;51.820;8.682;2023-08-20T04:01:50;19.80;99.90
11025;DHT22;22890;51.820;8.682;2023-08-20T04:04:17;19.80;99.90
11025;DHT22;22890;51.820;8.682;2023-08-20T04:06:44;19.80;99.90
11025;DHT22;22890;51.820;8.682;2023-08-20T04:09:10;19.80;99.90
11025;DHT22;22890;51.820;8.682;2023-08-20T04:11:38;19.80;99.90
11025;DHT22;22890;51.820;8.682;2023-08-20T04:14:05;19.80;99.90
11025;DHT22;22890;51.820;8.682;2023-08-20T04:16:32;19.80;99.90
11025;DHT22;22890;51.820;8.682;2023-08-20T04:18:58;19.80;99.90
11025;DHT22;22890;51.820;8.682;2023-08-20T04:21:26;19.80;99.90
11025;DHT22;22890;51.820;8.682;2023-08-20T04:23:52;19.80;99.90
11025;DHT22;22890;51.820;8.682;2023-08-20T04:26:19;19.70;99.90
11025;DHT22;22890;51.820;8.682;2023-08-20T04:28:46;19.70;99.90
11025;DHT22;22890;51.820;8.682;2023-08-20T04:31:13;19.70;99.90
11025;DHT22;22890;51.820;8.682;2023-08-20T04:33:47;19.80;99.90
11025;DHT22;22890;51.820;8.682;2023-08-20T04:36:18;19.70;99.90
11025;DHT22;22890;51.820;8.682;2023-08-20T04:38:45;19.80;99.90
11025;DHT22;22890;51.820;8.682;2023-08-20T04:41:12;19.80;99.90
11025;DHT22;22890;51.820;8.682;2023-08-20T04:43:38;19.80;99.90
11025;DHT22;22890;51.820;8.682;2023-08-20T04:46:05;19.80;99.90
11025;DHT22;22890;51.820;8.682;2023-08-20T04:48:32;19.80;99.90
11025;DHT22;22890;51.820;8.682;2023-08-20T04:50:59;19.80;99.90
11025;DHT22;22890;51.820;8.682;2023-08-20T04:53:27;19.80;99.90
11025;DHT22;22890;51.820;8.682;2023-08-20T04:55:53;19.90;99.90
11025;DHT22;22890;51.820;8.682;2023-08-20T04:58:21;19.90;99.90
11025;DHT22;22890;51.820;8.682;2023-08-20T05:00:49;19.90;99.90
11025;DHT22;22890;51.820;8.682;2023-08-20T05:03:15;20.00;99.90
11025;DHT22;22890;51.820;8.682;2023-08-20T05:05:49;20.00;99.90
11025;DHT22;22890;51.820;8.682;2023-08-20T05:08:16;20.00;99.90
11025;DHT22;22890;51.820;8.682;2023-08-20T05:10:43;20.00;99.90
11025;DHT22;22890;51.820;8.682;2023-08-20T05:13:11;20.00;99.90
11025;DHT22;22890;51.820;8.682;2023-08-20T05:15:37;20.10;99.90
11025;DHT22;22890;51.820;8.682;2023-08-20T05:18:04;20.10;99.90
11025;DHT22;22890;51.820;8.682;2023-08-20T05:20:31;20.10;99.90
11025;DHT22;22890;51.820;8.682;2023-08-20T05:22:58;20.10;99.90
11025;DHT22;22890;51.820;8.682;2023-08-20T05:25:25;20.10;99.90
11025;DHT22;22890;51.820;8.682;2023-08-20T05:27:51;20.10;99.90
11025;DHT22;22890;51.820;8.682;2023-08-20T05:30:18;20.20;99.90
11025;DHT22;22890;51.820;8.682;2023-08-20T05:32:45;20.20;99.90
11025;DHT22;22890;51.820;8.682;2023-08-20T05:35:12;20.20;99.90
11025;DHT22;22890;51.820;8.682;2023-08-20T05:37:40;20.20;99.90
11025;DHT22;22890;51.820;8.682;2023-08-20T05:40:07;20.20;99.90
11025;DHT22;22890;51.820;8.682;2023-08-20T05:42:35;20.20;99.90
11025;DHT22;22890;51.820;8.682;2023-08-20T05:45:05;20.20;99.90
11025;DHT22;22890;51.820;8.682;2023-08-20T05:47:33;20.20;99.90
11025;DHT22;22890;51.820;8.682;2023-08-20T05:50:00;20.20;99.90
11025;DHT22;22890;51.820;8.682;2023-08-20T05:52:26;20.30;99.90
11025;DHT22;22890;51.820;8.682;2023-08-20T05:54:53;20.40;99.90
11025;DHT22;22890;51.820;8.682;2023-08-20T05:57:21;20.50;99.90
11025;DHT22;22890;51.820;8.682;2023-08-20T05:59:47;20.50;99.90
11025;DHT22;22890;51.820;8.682;2023-08-20T06:02:18;20.60;99.90
11025;DHT22;22890;51.820;8.682;2023-08-20T06:04:45;20.70;99.90
11025;DHT22;22890;51.820;8.682;2023-08-20T06:07:12;20.80;99.90
11025;DHT22;22890;51.820;8.682;2023-08-20T06:09:39;20.80;99.90
11025;DHT22;22890;51.820;8.682;2023-08-20T06:12:06;20.90;99.90
11025;DHT22;22890;51.820;8.682;2023-08-20T06:14:33;20.90;99.90
11025;DHT22;22890;51.820;8.682;2023-08-20T06:17:00;20.90;99.90
11025;DHT22;22890;51.820;8.682;2023-08-20T06:19:26;21.00;99.90
11025;DHT22;22890;51.820;8.682;2023-08-20T06:21:53;21.10;99.90
11025;DHT22;22890;51.820;8.682;2023-08-20T06:24:20;21.10;99.90
11025;DHT22;22890;51.820;8.682;2023-08-20T06:26:46;21.20;99.90
11025;DHT22;22890;51.820;8.682;2023-08-20T06:29:14;21.30;99.90
11025;DHT22;22890;51.820;8.682;2023-08-20T06:31:41;21.30;99.90
11025;DHT22;22890;51.820;8.682;2023-08-20T06:34:07;21.40;99.90
11025;DHT22;22890;51.820;8.682;2023-08-20T06:36:34;21.50;99.90
11025;DHT22;22890;51.820;8.682;2023-08-20T06:39:01;21.70;99.90
11025;DHT22;22890;51.820;8.682;2023-08-20T06:41:28;21.80;99.90
11025;DHT22;22890;51.820;8.682;2023-08-20T06:43:55;21.90;99.90
11025;DHT22;22890;51.820;8.682;2023-08-20T06:46:21;22.00;99.90
11025;DHT22;22890;51.820;8.682;2023-08-20T06:48:48;22.10;99.90
11025;DHT22;22890;51.820;8.682;2023-08-20T06:51:18;22.10;99.90
11025;DHT22;22890;51.820;8.682;2023-08-20T06:53:45;22.10;99.90
11025;DHT22;22890;51.820;8.682;2023-08-20T06:56:12;22.20;99.90
11025;DHT22;22890;51.820;8.682;2023-08-20T06:58:40;22.20;99.90
11025;DHT22;22890;51.820;8.682;2023-08-20T07:01:07;22.30;99.90
11025;DHT22;22890;51.820;8.682;2023-08-20T07:03:37;22.30;99.90
11025;DHT22;22890;51.820;8.682;2023-08-20T07:06:05;22.40;99.90
11025;DHT22;22890;51.820;8.682;2023-08-20T07:08:32;22.50;99.90
11025;DHT22;22890;51.820;8.682;2023-08-20T07:10:59;22.60;99.90
11025;DHT22;22890;51.820;8.682;2023-08-20T07:13:25;22.60;99.90
11025;DHT22;22890;51.820;8.682;2023-08-20T07:15:52;22.70;99.90
11025;DHT22;22890;51.820;8.682;2023-08-20T07:18:19;22.70;99.90
11025;DHT22;22890;51.820;8.682;2023-08-20T07:20:46;22.80;99.90
11025;DHT22;22890;51.820;8.682;2023-08-20T07:23:12;22.80;99.90
11025;DHT22;22890;51.820;8.682;2023-08-20T07:25:40;22.90;99.90
11025;DHT22;22890;51.820;8.682;2023-08-20T07:28:08;23.00;99.90
11025;DHT22;22890;51.820;8.682;2023-08-20T07:30:35;23.00;99.90
11025;DHT22;22890;51.820;8.682;2023-08-20T07:33:02;23.10;99.90
11025;DHT22;22890;51.820;8.682;2023-08-20T07:35:33;23.10;99.90
11025;DHT22;22890;51.820;8.682;2023-08-20T07:38:00;23.10;99.90
11025;DHT22;22890;51.820;8.682;2023-08-20T07:40:26;23.20;99.90
11025;DHT22;22890;51.820;8.682;2023-08-20T07:42:53;23.20;99.90
11025;DHT22;22890;51.820;8.682;2023-08-20T07:45:20;23.20;99.90
11025;DHT22;22890;51.820;8.682;2023-08-20T07:47:47;23.30;99.90
11025;DHT22;22890;51.820;8.682;2023-08-20T07:50:14;23.30;99.90
11025;DHT22;22890;51.820;8.682;2023-08-20T07:52:40;23.50;99.90
11025;DHT22;22890;51.820;8.682;2023-08-20T07:55:07;23.50;99.90
11025;DHT22;22890;51.820;8.682;2023-08-20T07:57:34;23.50;99.90
11025;DHT22;22890;51.820;8.682;2023-08-20T08:00:01;23.50;99.90
11025;DHT22;22890;51.820;8.682;2023-08-20T08:02:37;23.60;99.90
11025;DHT22;22890;51.820;8.682;2023-08-20T08:05:04;23.70;99.90
11025;DHT22;22890;51.820;8.682;2023-08-20T08:07:31;23.70;99.90
11025;DHT22;22890;51.820;8.682;2023-08-20T08:09:57;23.80;99.90
11025;DHT22;22890;51.820;8.682;2023-08-20T08:12:24;23.90;99.90
11025;DHT22;22890;51.820;8.682;2023-08-20T08:14:51;23.90;99.90
11025;DHT22;22890;51.820;8.682;2023-08-20T08:17:18;24.00;99.90
11025;DHT22;22890;51.820;8.682;2023-08-20T08:19:44;24.00;99.90
11025;DHT22;22890;51.820;8.682;2023-08-20T08:22:11;24.00;99.90
11025;DHT22;22890;51.820;8.682;2023-08-20T08:24:38;24.10;99.90
11025;DHT22;22890;51.820;8.682;2023-08-20T08:27:08;24.20;99.90
11025;DHT22;22890;51.820;8.682;2023-08-20T08:29:35;24.30;99.90
11025;DHT22;22890;51.820;8.682;2023-08-20T08:32:01;24.30;99.90
11025;DHT22;22890;51.820;8.682;2023-08-20T08:34:28;24.30;99.90
11025;DHT22;22890;51.820;8.682;2023-08-20T08:36:55;23.00;99.90
11025;DHT22;22890;51.820;8.682;2023-08-20T08:39:22;24.30;99.90
11025;DHT22;22890;51.820;8.682;2023-08-20T08:41:51;24.30;99.90
11025;DHT22;22890;51.820;8.682;2023-08-20T08:44:21;24.40;99.90
11025;DHT22;22890;51.820;8.682;2023-08-20T08:46:49;24.50;99.90
11025;DHT22;22890;51.820;8.682;2023-08-20T08:49:17;24.50;99.90
11025;DHT22;22890;51.820;8.682;2023-08-20T08:51:44;24.60;99.90
11025;DHT22;22890;51.820;8.682;2023-08-20T08:54:13;24.70;99.90
11025;DHT22;22890;51.820;8.682;2023-08-20T08:56:41;24.60;99.90
11025;DHT22;22890;51.820;8.682;2023-08-20T08:59:08;24.60;99.90
11025;DHT22;22890;51.820;8.682;2023-08-20T09:01:39;24.70;99.90
11025;DHT22;22890;51.820;8.682;2023-08-20T09:04:07;24.70;99.90
11025;DHT22;22890;51.820;8.682;2023-08-20T09:06:48;24.80;99.90
11025;DHT22;22890;51.820;8.682;2023-08-20T09:09:16;24.80;99.90
11025;DHT22;22890;51.820;8.682;2023-08-20T09:11:43;24.90;99.90
11025;DHT22;22890;51.820;8.682;2023-08-20T09:14:27;24.90;99.90
11025;DHT22;22890;51.820;8.682;2023-08-20T09:16:55;24.90;99.90
11025;DHT22;22890;51.820;8.682;2023-08-20T09:19:23;24.90;99.90
11025;DHT22;22890;51.820;8.682;2023-08-20T09:21:50;24.90;99.90
11025;DHT22;22890;51.820;8.682;2023-08-20T09:24:26;24.90;99.90
11025;DHT22;22890;51.820;8.682;2023-08-20T09:26:57;24.90;99.90
11025;DHT22;22890;51.820;8.682;2023-08-20T09:29:25;25.00;99.90
11025;DHT22;22890;51.820;8.682;2023-08-20T09:32:00;25.00;99.90
11025;DHT22;22890;51.820;8.682;2023-08-20T09:34:38;25.10;99.90
11025;DHT22;22890;51.820;8.682;2023-08-20T09:37:09;26.00;99.90
11025;DHT22;22890;51.820;8.682;2023-08-20T09:39:36;25.10;99.90
11025;DHT22;22890;51.820;8.682;2023-08-20T09:42:05;25.40;99.90
11025;DHT22;22890;51.820;8.682;2023-08-20T09:44:34;25.20;99.90
11025;DHT22;22890;51.820;8.682;2023-08-20T09:47:03;25.30;99.90
11025;DHT22;22890;51.820;8.682;2023-08-20T09:49:37;25.40;99.90
11025;DHT22;22890;51.820;8.682;2023-08-20T09:52:05;25.40;99.90
11025;DHT22;22890;51.820;8.682;2023-08-20T09:55:00;25.40;99.90
11025;DHT22;22890;51.820;8.682;2023-08-20T09:57:36;25.40;99.90
11025;DHT22;22890;51.820;8.682;2023-08-20T10:00:08;25.50;99.90
11025;DHT22;22890;51.820;8.682;2023-08-20T10:02:40;25.50;99.90
11025;DHT22;22890;51.820;8.682;2023-08-20T10:05:11;25.60;99.90
11025;DHT22;22890;51.820;8.682;2023-08-20T10:07:38;25.60;99.90
11025;DHT22;22890;51.820;8.682;2023-08-20T10:10:09;25.60;99.90
11025;DHT22;22890;51.820;8.682;2023-08-20T10:12:38;25.60;99.90
11025;DHT22;22890;51.820;8.682;2023-08-20T10:15:10;25.60;99.90
11025;DHT22;22890;51.820;8.682;2023-08-20T10:17:38;25.60;99.90
11025;DHT22;22890;51.820;8.682;2023-08-20T10:20:07;25.70;99.90
11025;DHT22;22890;51.820;8.682;2023-08-20T10:22:42;25.70;99.90
11025;DHT22;22890;51.820;8.682;2023-08-20T10:25:12;25.80;99.90
11025;DHT22;22890;51.820;8.682;2023-08-20T10:27:47;25.80;99.90
11025;DHT22;22890;51.820;8.682;2023-08-20T10:30:19;25.90;99.90
11025;DHT22;22890;51.820;8.682;2023-08-20T10:32:51;25.90;99.90
11025;DHT22;22890;51.820;8.682;2023-08-20T10:38:01;26.00;99.90
11025;DHT22;22890;51.820;8.682;2023-08-20T10:40:56;26.10;99.90
11025;DHT22;22890;51.820;8.682;2023-08-20T10:43:31;26.10;99.90
11025;DHT22;22890;51.820;8.682;2023-08-20T10:46:16;26.20;99.90
11025;DHT22;22890;51.820;8.682;2023-08-20T10:48:58;26.20;99.90
11025;DHT22;22890;51.820;8.682;2023-08-20T10:51:38;26.20;99.90
11025;DHT22;22890;51.820;8.682;2023-08-20T10:54:07;26.20;99.90
11025;DHT22;22890;51.820;8.682;2023-08-20T10:59:39;26.20;99.90
11025;DHT22;22890;51.820;8.682;2023-08-20T11:02:12;26.30;99.90
11025;DHT22;22890;51.820;8.682;2023-08-20T11:04:41;26.30;99.90
11025;DHT22;22890;51.820;8.682;2023-08-20T11:07:08;26.40;99.90
11025;DHT22;22890;51.820;8.682;2023-08-20T11:09:36;26.40;99.90
11025;DHT22;22890;51.820;8.682;2023-08-20T11:12:06;26.40;99.90
11025;DHT22;22890;51.820;8.682;2023-08-20T11:14:35;26.40;99.90
11025;DHT22;22890;51.820;8.682;2023-08-20T11:17:01;26.50;99.90
11025;DHT22;22890;51.820;8.682;2023-08-20T11:19:28;26.50;99.90
11025;DHT22;22890;51.820;8.682;2023-08-20T11:21:55;26.60;99.90
11025;DHT22;22890;51.820;8.682;2023-08-20T11:24:23;26.70;99.90
11025;DHT22;22890;51.820;8.682;2023-08-20T11:26:50;26.20;99.90
11025;DHT22;22890;51.820;8.682;2023-08-20T11:29:17;26.80;99.90
11025;DHT22;22890;51.820;8.682;2023-08-20T11:31:48;26.90;99.90
11025;DHT22;22890;51.820;8.682;2023-08-20T11:34:16;27.00;99.90
11025;DHT22;22890;51.820;8.682;2023-08-20T11:36:44;27.00;99.90
11025;DHT22;22890;51.820;8.682;2023-08-20T11:39:11;27.00;99.90
11025;DHT22;22890;51.820;8.682;2023-08-20T11:41:39;27.20;99.90
11025;DHT22;22890;51.820;8.682;2023-08-20T11:44:08;27.20;99.90
11025;DHT22;22890;51.820;8.682;2023-08-20T11:46:42;27.30;99.90
11025;DHT22;22890;51.820;8.682;2023-08-20T11:49:11;27.30;99.90
11025;DHT22;22890;51.820;8.682;2023-08-20T11:51:42;27.30;99.90
11025;DHT22;22890;51.820;8.682;2023-08-20T11:54:16;27.30;99.90
11025;DHT22;22890;51.820;8.682;2023-08-20T11:56:45;27.40;99.90
11025;DHT22;22890;51.820;8.682;2023-08-20T11:59:13;27.30;99.90
11025;DHT22;22890;51.820;8.682;2023-08-20T12:01:41;27.40;99.90
11025;DHT22;22890;51.820;8.682;2023-08-20T12:04:09;27.50;99.90
11025;DHT22;22890;51.820;8.682;2023-08-20T12:06:37;27.40;99.90
11025;DHT22;22890;51.820;8.682;2023-08-20T12:09:23;27.40;99.90
11025;DHT22;22890;51.820;8.682;2023-08-20T12:11:54;27.50;99.90
11025;DHT22;22890;51.820;8.682;2023-08-20T12:14:22;27.40;99.90
11025;DHT22;22890;51.820;8.682;2023-08-20T12:16:50;27.40;99.90
11025;DHT22;22890;51.820;8.682;2023-08-20T12:19:20;27.50;99.90
11025;DHT22;22890;51.820;8.682;2023-08-20T12:21:47;27.50;99.90
11025;DHT22;22890;51.820;8.682;2023-08-20T12:24:13;27.50;99.90
11025;DHT22;22890;51.820;8.682;2023-08-20T12:26:41;27.50;99.90
11025;DHT22;22890;51.820;8.682;2023-08-20T12:29:08;27.60;99.90
11025;DHT22;22890;51.820;8.682;2023-08-20T12:31:35;27.60;99.90
11025;DHT22;22890;51.820;8.682;2023-08-20T12:34:02;27.60;99.90
11025;DHT22;22890;51.820;8.682;2023-08-20T12:36:30;27.60;99.90
11025;DHT22;22890;51.820;8.682;2023-08-20T12:38:57;27.60;99.90
11025;DHT22;22890;51.820;8.682;2023-08-20T12:41:24;27.70;99.90
11025;DHT22;22890;51.820;8.682;2023-08-20T12:43:51;27.70;99.90
11025;DHT22;22890;51.820;8.682;2023-08-20T12:46:17;27.70;99.90
11025;DHT22;22890;51.820;8.682;2023-08-20T12:48:45;27.80;99.90
11025;DHT22;22890;51.820;8.682;2023-08-20T12:51:12;27.80;99.90
11025;DHT22;22890;51.820;8.682;2023-08-20T12:53:40;27.90;99.90
11025;DHT22;22890;51.820;8.682;2023-08-20T12:56:07;27.90;99.90
11025;DHT22;22890;51.820;8.682;2023-08-20T12:58:34;27.90;99.90
11025;DHT22;22890;51.820;8.682;2023-08-20T13:01:01;27.90;99.90
11025;DHT22;22890;51.820;8.682;2023-08-20T13:03:28;27.90;99.90
11025;DHT22;22890;51.820;8.682;2023-08-20T13:05:56;27.90;99.90
11025;DHT22;22890;51.820;8.682;2023-08-20T13:08:26;27.90;99.90
11025;DHT22;22890;51.820;8.682;2023-08-20T13:10:56;27.90;99.90
11025;DHT22;22890;51.820;8.682;2023-08-20T13:13:24;27.90;99.90
11025;DHT22;22890;51.820;8.682;2023-08-20T13:15:52;27.90;99.90
11025;DHT22;22890;51.820;8.682;2023-08-20T13:18:20;27.90;99.90
11025;DHT22;22890;51.820;8.682;2023-08-20T13:20:52;27.90;99.90
11025;DHT22;22890;51.820;8.682;2023-08-20T13:23:19;27.90;99.90
11025;DHT22;22890;51.820;8.682;2023-08-20T13:25:46;27.80;99.90
11025;DHT22;22890;51.820;8.682;2023-08-20T13:28:13;27.80;99.90
11025;DHT22;22890;51.820;8.682;2023-08-20T13:30:40;27.80;99.90
11025;DHT22;22890;51.820;8.682;2023-08-20T13:33:06;27.80;99.90
11025;DHT22;22890;51.820;8.682;2023-08-20T13:35:34;27.70;99.90
11025;DHT22;22890;51.820;8.682;2023-08-20T13:38:00;27.70;99.90
11025;DHT22;22890;51.820;8.682;2023-08-20T13:40:28;27.70;99.90
11025;DHT22;22890;51.820;8.682;2023-08-20T13:42:55;27.70;99.90
11025;DHT22;22890;51.820;8.682;2023-08-20T13:45:22;27.70;99.90
11025;DHT22;22890;51.820;8.682;2023-08-20T13:47:48;27.70;99.90
11025;DHT22;22890;51.820;8.682;2023-08-20T13:50:15;27.70;99.90
11025;DHT22;22890;51.820;8.682;2023-08-20T13:52:43;27.70;99.90
11025;DHT22;22890;51.820;8.682;2023-08-20T13:55:09;27.70;99.90
11025;DHT22;22890;51.820;8.682;2023-08-20T13:57:36;27.70;99.90
11025;DHT22;22890;51.820;8.682;2023-08-20T14:00:04;27.70;99.90
11025;DHT22;22890;51.820;8.682;2023-08-20T14:02:41;27.70;99.90
11025;DHT22;22890;51.820;8.682;2023-08-20T14:05:08;27.70;99.90
11025;DHT22;22890;51.820;8.682;2023-08-20T14:07:35;27.70;99.90
11025;DHT22;22890;51.820;8.682;2023-08-20T14:10:03;27.70;99.90
11025;DHT22;22890;51.820;8.682;2023-08-20T14:12:31;27.70;99.90
11025;DHT22;22890;51.820;8.682;2023-08-20T14:14:58;27.80;99.90
11025;DHT22;22890;51.820;8.682;2023-08-20T14:17:25;27.80;99.90
11025;DHT22;22890;51.820;8.682;2023-08-20T14:19:52;27.80;99.90
11025;DHT22;22890;51.820;8.682;2023-08-20T14:22:18;27.80;99.90
11025;DHT22;22890;51.820;8.682;2023-08-20T14:24:45;27.80;99.90
11025;DHT22;22890;51.820;8.682;2023-08-20T14:27:12;27.90;99.90
11025;DHT22;22890;51.820;8.682;2023-08-20T14:29:40;27.80;99.90
11025;DHT22;22890;51.820;8.682;2023-08-20T14:32:07;27.80;99.90
11025;DHT22;22890;51.820;8.682;2023-08-20T14:34:34;27.80;99.90
11025;DHT22;22890;51.820;8.682;2023-08-20T14:37:01;27.80;99.90
11025;DHT22;22890;51.820;8.682;2023-08-20T14:39:28;27.70;99.90
11025;DHT22;22890;51.820;8.682;2023-08-20T14:41:58;27.80;99.90
11025;DHT22;22890;51.820;8.682;2023-08-20T14:44:25;27.80;99.90
11025;DHT22;22890;51.820;8.682;2023-08-20T14:46:51;27.70;99.90
11025;DHT22;22890;51.820;8.682;2023-08-20T14:49:18;27.70;99.90
11025;DHT22;22890;51.820;8.682;2023-08-20T14:51:45;27.60;99.90
11025;DHT22;22890;51.820;8.682;2023-08-20T14:54:12;27.60;99.90
11025;DHT22;22890;51.820;8.682;2023-08-20T14:56:39;27.50;99.90
11025;DHT22;22890;51.820;8.682;2023-08-20T14:59:05;27.50;99.90
11025;DHT22;22890;51.820;8.682;2023-08-20T15:01:32;27.50;99.90
11025;DHT22;22890;51.820;8.682;2023-08-20T15:03:59;27.50;99.90
11025;DHT22;22890;51.820;8.682;2023-08-20T15:06:25;27.50;99.90
11025;DHT22;22890;51.820;8.682;2023-08-20T15:08:53;27.50;99.90
11025;DHT22;22890;51.820;8.682;2023-08-20T15:11:20;27.60;99.90
11025;DHT22;22890;51.820;8.682;2023-08-20T15:13:47;27.60;99.90
11025;DHT22;22890;51.820;8.682;2023-08-20T15:16:13;27.60;99.90
11025;DHT22;22890;51.820;8.682;2023-08-20T15:18:40;27.60;99.90
11025;DHT22;22890;51.820;8.682;2023-08-20T15:21:07;27.70;99.90
11025;DHT22;22890;51.820;8.682;2023-08-20T15:23:37;29.80;99.90
11025;DHT22;22890;51.820;8.682;2023-08-20T15:26:04;27.80;99.90
11025;DHT22;22890;51.820;8.682;2023-08-20T15:28:31;27.90;99.90
11025;DHT22;22890;51.820;8.682;2023-08-20T15:30:59;28.20;99.90
11025;DHT22;22890;51.820;8.682;2023-08-20T15:33:27;28.00;99.90
11025;DHT22;22890;51.820;8.682;2023-08-20T15:35:53;28.00;99.90
11025;DHT22;22890;51.820;8.682;2023-08-20T15:38:20;28.00;99.90
11025;DHT22;22890;51.820;8.682;2023-08-20T15:40:47;28.10;99.90
11025;DHT22;22890;51.820;8.682;2023-08-20T15:43:14;28.10;99.90
11025;DHT22;22890;51.820;8.682;2023-08-20T15:45:40;28.00;99.90